createdAt,value
2018-06-04T00:02:24.878Z,99.00
2018-06-04T00:04:53.560Z,99.00
2018-06-04T00:07:22.130Z,99.20
2018-06-04T00:09:50.760Z,99.10
2018-06-04T00:12:19.523Z,99.00
2018-06-04T00:17:16.627Z,99.30
2018-06-04T00:19:45.313Z,99.40
2018-06-04T00:22:13.828Z,99.20
2018-06-04T00:24:42.356Z,99.20
2018-06-04T00:27:10.939Z,99.00
2018-06-04T00:29:39.489Z,99.10
2018-06-04T00:32:08.086Z,99.30
2018-06-04T00:34:36.699Z,99.50
2018-06-04T00:37:05.465Z,99.50
2018-06-04T00:39:34.209Z,99.30
2018-06-04T00:42:02.922Z,99.30
2018-06-04T00:46:59.644Z,99.10
2018-06-04T00:49:28.157Z,99.10
2018-06-04T00:51:56.954Z,99.20
2018-06-04T00:54:25.497Z,99.50
2018-06-04T00:56:54.101Z,99.50
2018-06-04T00:59:22.597Z,99.30
2018-06-04T01:01:51.215Z,98.70
2018-06-04T01:04:19.720Z,99.80
2018-06-04T01:06:48.431Z,99.50
2018-06-04T01:09:16.904Z,99.40
2018-06-04T01:11:45.591Z,99.40
2018-06-04T01:14:14.427Z,99.50
2018-06-04T01:16:42.944Z,99.50
2018-06-04T01:19:11.758Z,99.40
2018-06-04T01:21:40.439Z,99.60
2018-06-04T01:24:09.477Z,99.50
2018-06-04T01:29:06.514Z,99.70
2018-06-04T01:31:35.476Z,99.80
2018-06-04T01:34:04.010Z,99.50
2018-06-04T01:36:32.659Z,99.30
2018-06-04T01:39:01.436Z,99.40
2018-06-04T01:41:30.000Z,99.50
2018-06-04T01:43:58.535Z,99.20
2018-06-04T01:46:27.034Z,99.30
2018-06-04T01:48:55.645Z,99.60
2018-06-04T01:51:24.326Z,99.70
2018-06-04T01:53:52.855Z,99.70
2018-06-04T01:56:21.384Z,99.60
2018-06-04T01:58:50.041Z,99.60
2018-06-04T02:01:18.940Z,99.90
2018-06-04T02:03:47.406Z,99.90
2018-06-04T02:08:44.128Z,99.60
2018-06-04T02:11:12.711Z,99.60
2018-06-04T02:13:41.239Z,99.60
2018-06-04T02:16:10.002Z,99.70
2018-06-04T02:18:38.645Z,99.80
2018-06-04T02:21:07.198Z,99.60
2018-06-04T02:23:35.793Z,99.30
2018-06-04T02:26:04.409Z,99.40
2018-06-04T02:28:32.885Z,99.60
2018-06-04T02:31:01.633Z,99.90
2018-06-04T02:33:30.631Z,99.90
2018-06-04T02:35:59.157Z,99.70
2018-06-04T02:38:27.731Z,99.70
2018-06-04T02:40:57.129Z,99.70
2018-06-04T02:43:25.897Z,99.70
2018-06-04T02:45:54.575Z,99.80
2018-06-04T02:48:23.059Z,99.90
2018-06-04T02:50:51.798Z,99.90
2018-06-04T02:53:20.316Z,99.90
2018-06-04T02:55:48.916Z,99.80
2018-06-04T02:58:17.412Z,99.70
2018-06-04T03:00:45.913Z,99.90
2018-06-04T03:03:14.460Z,99.70
2018-06-04T03:05:43.332Z,99.90
2018-06-04T03:08:11.951Z,99.90
2018-06-04T03:10:40.562Z,99.90
2018-06-04T03:13:09.051Z,99.90
2018-06-04T03:15:37.584Z,99.90
2018-06-04T03:18:06.184Z,99.80
2018-06-04T03:20:34.777Z,99.50
2018-06-04T03:23:03.281Z,99.10
2018-06-04T03:25:31.837Z,99.30
2018-06-04T03:28:00.427Z,99.30
2018-06-04T03:30:28.993Z,99.40
2018-06-04T03:32:57.687Z,99.60
2018-06-04T03:35:26.237Z,99.80
2018-06-04T03:37:54.735Z,99.90
2018-06-04T03:40:23.787Z,99.90
2018-06-04T03:45:21.063Z,99.80
2018-06-04T03:47:49.715Z,99.90
2018-06-04T03:50:18.254Z,99.60
2018-06-04T03:52:46.800Z,99.70
2018-06-04T03:55:15.494Z,99.50
2018-06-04T04:00:12.431Z,99.30
2018-06-04T04:02:40.939Z,99.20
2018-06-04T04:05:09.621Z,98.90
2018-06-04T04:07:38.205Z,98.70
2018-06-04T04:10:06.747Z,98.50
2018-06-04T04:12:35.418Z,98.70
2018-06-04T04:15:03.979Z,98.90
2018-06-04T04:17:32.565Z,99.20
2018-06-04T04:20:01.082Z,99.00
2018-06-04T04:22:29.624Z,98.70
2018-06-04T04:24:58.194Z,98.80
2018-06-04T04:27:26.892Z,98.50
2018-06-04T04:29:55.386Z,98.20
2018-06-04T04:32:23.904Z,97.80
2018-06-04T04:34:52.603Z,97.70
2018-06-04T04:37:21.132Z,97.80
2018-06-04T04:39:49.711Z,97.50
2018-06-04T04:42:18.333Z,97.60
2018-06-04T04:44:46.830Z,97.40
2018-06-04T04:47:15.345Z,97.50
2018-06-04T04:49:43.855Z,97.50
2018-06-04T04:52:12.726Z,97.30
2018-06-04T04:54:41.249Z,97.20
2018-06-04T04:57:09.756Z,97.10
2018-06-04T04:59:38.309Z,96.90
2018-06-04T05:02:06.809Z,96.70
2018-06-04T05:04:35.357Z,97.00
2018-06-04T05:07:04.009Z,96.80
2018-06-04T05:09:32.560Z,96.80
2018-06-04T05:12:01.027Z,96.70
2018-06-04T05:14:29.656Z,96.60
2018-06-04T05:16:58.143Z,96.80
2018-06-04T05:19:26.710Z,96.70
2018-06-04T05:21:55.233Z,96.80
2018-06-04T05:24:23.865Z,96.60
2018-06-04T05:26:57.441Z,96.50
2018-06-04T05:29:26.060Z,96.10
2018-06-04T05:31:54.642Z,95.80
2018-06-04T05:34:23.052Z,95.80
2018-06-04T05:36:51.516Z,95.50
2018-06-04T05:39:20.137Z,95.90
2018-06-04T05:41:48.657Z,95.90
2018-06-04T05:44:17.880Z,95.80
2018-06-04T05:46:46.533Z,95.80
2018-06-04T05:49:15.040Z,95.90
2018-06-04T05:51:43.559Z,95.90
2018-06-04T05:54:12.305Z,95.80
2018-06-04T05:56:40.828Z,95.80
2018-06-04T05:59:09.490Z,95.80
2018-06-04T06:01:38.182Z,95.10
2018-06-04T06:04:06.792Z,95.30
2018-06-04T06:06:35.413Z,95.10
2018-06-04T06:09:06.358Z,95.10
2018-06-04T06:11:34.894Z,95.30
2018-06-04T06:14:03.711Z,95.20
2018-06-04T06:16:32.637Z,95.10
2018-06-04T06:19:01.411Z,95.20
2018-06-04T06:21:29.980Z,95.00
2018-06-04T06:23:58.745Z,95.00
2018-06-04T06:26:27.766Z,94.70
2018-06-04T06:28:56.320Z,94.80
2018-06-04T06:31:24.859Z,94.70
2018-06-04T06:33:53.565Z,95.00
2018-06-04T06:36:22.066Z,94.90
2018-06-04T06:38:50.630Z,94.80
2018-06-04T06:41:19.345Z,94.60
2018-06-04T06:43:47.866Z,94.70
2018-06-04T06:46:16.451Z,94.60
2018-06-04T06:48:45.078Z,94.40
2018-06-04T06:51:13.658Z,94.20
2018-06-04T06:53:42.194Z,94.20
2018-06-04T06:56:10.783Z,94.50
2018-06-04T06:58:39.290Z,94.00
2018-06-04T07:01:07.996Z,94.10
2018-06-04T07:03:36.551Z,93.90
2018-06-04T07:06:05.067Z,94.00
2018-06-04T07:08:33.820Z,93.70
2018-06-04T07:11:02.789Z,93.50
2018-06-04T07:13:31.477Z,93.60
2018-06-04T07:16:00.009Z,93.00
2018-06-04T07:18:28.831Z,92.60
2018-06-04T07:23:25.787Z,92.40
2018-06-04T07:25:54.345Z,92.00
2018-06-04T07:28:22.864Z,91.40
2018-06-04T07:30:51.394Z,91.20
2018-06-04T07:33:20.292Z,91.10
2018-06-04T07:35:48.840Z,90.20
2018-06-04T07:38:17.482Z,85.40
2018-06-04T07:40:46.928Z,82.70
2018-06-04T07:43:15.575Z,80.80
2018-06-04T07:45:44.109Z,80.80
2018-06-04T07:48:12.783Z,77.60
2018-06-04T07:50:41.356Z,76.50
2018-06-04T07:53:10.054Z,77.20
2018-06-04T07:55:38.695Z,76.60
2018-06-04T07:58:07.301Z,78.00
2018-06-04T08:00:35.837Z,79.30
2018-06-04T08:03:04.491Z,77.50
2018-06-04T08:05:33.049Z,75.80
2018-06-04T08:08:01.610Z,75.30
2018-06-04T08:10:30.236Z,75.80
2018-06-04T08:12:58.746Z,74.60
2018-06-04T08:15:27.351Z,73.80
2018-06-04T08:17:56.024Z,73.60
2018-06-04T08:20:24.847Z,73.00
2018-06-04T08:22:53.610Z,74.60
2018-06-04T08:25:22.211Z,73.20
2018-06-04T08:27:50.801Z,71.30
2018-06-04T08:32:47.855Z,71.40
2018-06-04T08:35:16.736Z,72.60
2018-06-04T08:37:45.304Z,70.80
2018-06-04T08:40:13.897Z,71.70
2018-06-04T08:42:42.493Z,70.20
2018-06-04T08:45:11.316Z,70.50
2018-06-04T08:47:40.395Z,69.50
2018-06-04T08:50:09.240Z,71.10
2018-06-04T08:52:38.057Z,66.20
2018-06-04T08:55:06.606Z,66.90
2018-06-04T08:57:35.110Z,67.90
2018-06-04T09:00:03.789Z,65.10
2018-06-04T09:02:32.736Z,64.20
2018-06-04T09:05:01.273Z,66.50
2018-06-04T09:07:29.864Z,63.20
2018-06-04T09:09:58.480Z,61.70
2018-06-04T09:14:55.697Z,61.70
2018-06-04T09:17:24.267Z,59.70
2018-06-04T09:19:52.807Z,59.20
2018-06-04T09:22:21.360Z,58.50
2018-06-04T09:24:50.095Z,57.30
2018-06-04T09:27:18.664Z,56.80
2018-06-04T09:29:47.354Z,57.30
2018-06-04T09:32:16.120Z,55.80
2018-06-04T09:34:44.729Z,57.00
2018-06-04T09:37:13.239Z,57.00
2018-06-04T09:39:41.854Z,57.60
2018-06-04T09:42:10.438Z,57.30
2018-06-04T09:44:38.985Z,54.60
2018-06-04T09:47:07.847Z,53.60
2018-06-04T09:49:36.609Z,53.00
2018-06-04T09:52:05.136Z,52.70
2018-06-04T09:54:33.704Z,52.50
2018-06-04T09:57:02.507Z,51.00
2018-06-04T09:59:31.075Z,55.10
2018-06-04T10:01:59.823Z,53.40
2018-06-04T10:04:28.374Z,52.20
2018-06-04T10:06:56.880Z,51.30
2018-06-04T10:09:25.773Z,50.60
2018-06-04T10:11:54.299Z,51.70
2018-06-04T10:14:22.899Z,51.70
2018-06-04T10:16:51.430Z,53.60
2018-06-04T10:19:20.211Z,53.80
2018-06-04T10:21:48.754Z,54.40
2018-06-04T10:24:17.542Z,55.20
2018-06-04T10:26:46.199Z,54.00
2018-06-04T10:29:15.047Z,53.00
2018-06-04T10:31:43.981Z,50.60
2018-06-04T10:34:12.902Z,48.60
2018-06-04T10:36:41.578Z,49.60
2018-06-04T10:39:10.060Z,51.20
2018-06-04T10:41:38.972Z,52.00
2018-06-04T10:44:07.660Z,52.50
2018-06-04T10:46:36.501Z,51.20
2018-06-04T10:49:05.110Z,52.30
2018-06-04T10:51:33.659Z,51.30
2018-06-04T10:54:02.373Z,49.40
2018-06-04T10:56:31.504Z,46.70
2018-06-04T10:59:00.405Z,44.30
2018-06-04T11:01:29.020Z,43.40
2018-06-04T11:03:57.547Z,42.50
2018-06-04T11:06:26.140Z,40.90
2018-06-04T11:08:54.913Z,40.30
2018-06-04T11:11:23.768Z,38.90
2018-06-04T11:13:52.711Z,38.00
2018-06-04T11:16:21.490Z,36.50
2018-06-04T11:18:50.211Z,36.30
2018-06-04T11:21:18.949Z,36.10
2018-06-04T11:23:47.545Z,35.60
2018-06-04T11:26:16.552Z,35.30
2018-06-04T11:28:45.159Z,34.60
2018-06-04T11:31:13.853Z,34.70
2018-06-04T11:33:42.961Z,34.50
2018-06-04T11:36:11.776Z,34.50
2018-06-04T11:38:40.648Z,35.90
2018-06-04T11:41:09.220Z,37.00
2018-06-04T11:43:37.743Z,37.80
2018-06-04T11:46:06.741Z,40.50
2018-06-04T11:48:35.464Z,42.80
2018-06-04T11:51:04.098Z,43.60
2018-06-04T11:53:32.895Z,44.30
2018-06-04T11:56:01.508Z,45.30
2018-06-04T11:58:30.235Z,45.20
2018-06-04T12:00:59.073Z,43.00
2018-06-04T12:03:27.994Z,43.60
2018-06-04T12:05:57.541Z,42.90
2018-06-04T12:08:26.308Z,44.10
2018-06-04T12:10:54.868Z,42.50
2018-06-04T12:13:23.502Z,41.00
2018-06-04T12:15:52.516Z,40.30
2018-06-04T12:18:21.253Z,37.50
2018-06-04T12:20:49.818Z,38.70
2018-06-04T12:23:18.612Z,40.00
2018-06-04T12:25:47.518Z,40.70
2018-06-04T12:28:16.086Z,42.70
2018-06-04T12:30:44.710Z,44.30
2018-06-04T12:33:13.593Z,45.30
2018-06-04T12:35:42.158Z,45.70
2018-06-04T12:38:10.824Z,47.10
2018-06-04T12:40:39.342Z,46.80
2018-06-04T12:43:08.055Z,47.00
2018-06-04T12:45:36.898Z,47.40
2018-06-04T12:48:05.912Z,46.50
2018-06-04T12:50:34.473Z,44.80
2018-06-04T12:53:03.033Z,42.10
2018-06-04T12:55:31.552Z,41.00
2018-06-04T12:58:00.170Z,41.40
2018-06-04T13:00:28.835Z,39.40
2018-06-04T13:02:57.346Z,39.10
2018-06-04T13:05:26.082Z,39.00
2018-06-04T13:07:54.898Z,38.20
2018-06-04T13:10:23.502Z,38.20
2018-06-04T13:12:52.297Z,36.60
2018-06-04T13:15:20.968Z,36.10
2018-06-04T13:17:49.570Z,34.20
2018-06-04T13:22:47.567Z,31.90
2018-06-04T13:25:16.102Z,32.80
2018-06-04T13:27:44.824Z,34.30
2018-06-04T13:30:13.606Z,36.60
2018-06-04T13:32:42.319Z,37.60
2018-06-04T13:35:11.196Z,40.50
2018-06-04T13:37:39.827Z,42.30
2018-06-04T13:40:08.537Z,42.50
2018-06-04T13:42:37.073Z,42.00
2018-06-04T13:45:05.994Z,39.90
2018-06-04T13:47:34.766Z,40.00
2018-06-04T13:50:03.567Z,39.80
2018-06-04T13:52:32.477Z,41.40
2018-06-04T13:55:01.220Z,42.50
2018-06-04T13:57:29.799Z,43.70
2018-06-04T13:59:58.563Z,43.30
2018-06-04T14:02:27.344Z,39.30
2018-06-04T14:04:56.106Z,37.00
2018-06-04T14:07:24.693Z,33.90
2018-06-04T14:09:53.280Z,33.10
2018-06-04T14:12:21.923Z,34.00
2018-06-04T14:14:50.601Z,36.10
2018-06-04T14:17:19.236Z,37.50
2018-06-04T14:19:48.147Z,37.80
2018-06-04T14:22:16.984Z,37.40
2018-06-04T14:24:45.572Z,35.70
2018-06-04T14:27:14.402Z,35.30
2018-06-04T14:29:43.339Z,33.70
2018-06-04T14:32:11.956Z,33.50
2018-06-04T14:34:40.756Z,34.20
2018-06-04T14:37:09.502Z,35.20
2018-06-04T14:39:38.091Z,36.10
2018-06-04T14:42:06.728Z,39.30
2018-06-04T14:47:03.723Z,41.70
2018-06-04T14:49:32.326Z,41.90
2018-06-04T14:52:01.093Z,41.50
2018-06-04T14:54:29.862Z,39.80
2018-06-04T14:56:58.613Z,37.90
2018-06-04T14:59:27.243Z,37.00
2018-06-04T15:01:55.970Z,35.00
2018-06-04T15:04:24.559Z,33.20
2018-06-04T15:06:53.310Z,33.00
2018-06-04T15:09:22.170Z,33.40
2018-06-04T15:11:50.847Z,33.50
2018-06-04T15:14:19.590Z,33.80
2018-06-04T15:16:48.570Z,32.50
2018-06-04T15:19:17.334Z,30.90
2018-06-04T15:21:46.738Z,31.40
2018-06-04T15:24:15.518Z,31.30
2018-06-04T15:26:44.683Z,32.80
2018-06-04T15:29:13.257Z,33.40
2018-06-04T15:31:41.873Z,32.10
2018-06-04T15:34:10.814Z,30.00
2018-06-04T15:36:39.765Z,31.90
2018-06-04T15:39:09.147Z,34.20
2018-06-04T15:41:37.781Z,32.70
2018-06-04T15:44:06.366Z,32.40
2018-06-04T15:46:35.128Z,32.00
2018-06-04T15:49:03.878Z,32.40
2018-06-04T15:51:32.630Z,32.60
2018-06-04T15:54:01.548Z,35.70
2018-06-04T15:56:30.505Z,38.00
2018-06-04T15:58:59.070Z,38.70
2018-06-04T16:01:27.707Z,40.70
2018-06-04T16:03:56.313Z,39.60
2018-06-04T16:08:53.643Z,43.10
2018-06-04T16:11:22.406Z,45.30
2018-06-04T16:13:51.206Z,48.20
2018-06-04T16:18:48.349Z,48.10
2018-06-04T16:21:17.241Z,48.80
2018-06-04T16:23:46.132Z,49.30
2018-06-04T16:26:14.957Z,51.20
2018-06-04T16:28:43.795Z,51.40
2018-06-04T16:31:12.749Z,51.90
2018-06-04T16:33:42.470Z,50.90
2018-06-04T16:36:11.468Z,51.40
2018-06-04T16:38:40.566Z,51.40
2018-06-04T16:41:09.240Z,51.10
2018-06-04T16:43:38.252Z,51.00
2018-06-04T16:46:07.055Z,51.90
2018-06-04T16:48:35.749Z,51.40
2018-06-04T16:51:04.547Z,51.90
2018-06-04T16:53:33.306Z,52.00
2018-06-04T16:56:02.042Z,52.90
2018-06-04T16:58:30.656Z,53.70
2018-06-04T17:00:59.585Z,54.40
2018-06-04T17:03:28.299Z,56.50
2018-06-04T17:05:57.005Z,57.20
2018-06-04T17:08:25.669Z,57.60
2018-06-04T17:10:54.440Z,58.20
2018-06-04T17:13:23.018Z,59.10
2018-06-04T17:15:52.070Z,58.20
2018-06-04T17:18:20.743Z,58.90
2018-06-04T17:20:50.334Z,59.00
2018-06-04T17:23:19.108Z,58.20
2018-06-04T17:25:47.949Z,58.20
2018-06-04T17:28:16.851Z,59.00
2018-06-04T17:30:45.599Z,59.10
2018-06-04T17:33:14.431Z,59.20
2018-06-04T17:35:43.357Z,59.50
2018-06-04T17:38:12.294Z,59.80
2018-06-04T17:40:41.055Z,59.20
2018-06-04T17:43:09.932Z,59.50
2018-06-04T17:45:38.733Z,59.70
2018-06-04T17:48:07.343Z,60.40
2018-06-04T17:50:36.250Z,60.30
2018-06-04T17:53:05.040Z,60.20
2018-06-04T17:55:33.622Z,60.70
2018-06-04T17:58:02.369Z,61.00
2018-06-04T18:00:31.473Z,61.50
2018-06-04T18:03:00.521Z,62.00
2018-06-04T18:05:29.130Z,61.50
2018-06-04T18:07:57.736Z,62.00
2018-06-04T18:10:26.622Z,62.80
2018-06-04T18:12:56.121Z,64.40
2018-06-04T18:15:24.996Z,64.10
2018-06-04T18:17:53.741Z,63.50
2018-06-04T18:20:22.630Z,64.30
2018-06-04T18:22:51.499Z,65.40
2018-06-04T18:25:20.364Z,65.30
2018-06-04T18:27:49.286Z,66.00
2018-06-04T18:30:18.480Z,66.90
2018-06-04T18:32:47.067Z,68.10
2018-06-04T18:35:15.703Z,67.30
2018-06-04T18:37:44.631Z,69.10
2018-06-04T18:40:13.732Z,69.60
2018-06-04T18:42:42.742Z,70.70
2018-06-04T18:45:11.566Z,71.00
2018-06-04T18:50:09.979Z,72.20
2018-06-04T18:52:38.601Z,71.60
2018-06-04T18:55:07.555Z,72.70
2018-06-04T18:57:36.239Z,74.40
2018-06-04T19:00:05.913Z,75.60
2018-06-04T19:02:34.561Z,76.60
2018-06-04T19:05:03.540Z,77.10
2018-06-04T19:07:32.848Z,77.70
2018-06-04T19:10:01.645Z,78.50
2018-06-04T19:12:30.543Z,79.80
2018-06-04T19:14:59.454Z,81.10
2018-06-04T19:17:28.508Z,81.40
2018-06-04T19:19:57.612Z,83.50
2018-06-04T19:22:26.665Z,84.80
2018-06-04T19:27:23.973Z,85.30
2018-06-04T19:29:53.155Z,85.00
2018-06-04T19:32:22.106Z,85.90
2018-06-04T19:34:50.730Z,87.30
2018-06-04T19:37:19.776Z,89.10
2018-06-04T19:39:49.152Z,89.40
2018-06-04T19:42:18.352Z,90.00
2018-06-04T19:44:48.147Z,90.60
2018-06-04T19:47:17.025Z,90.90
2018-06-04T19:49:45.873Z,90.90
2018-06-04T19:52:14.852Z,90.20
2018-06-04T19:54:43.878Z,90.10
2018-06-04T19:57:12.766Z,90.70
2018-06-04T19:59:41.558Z,91.00
2018-06-04T20:02:10.285Z,91.30
2018-06-04T20:04:39.242Z,91.60
2018-06-04T20:07:08.040Z,91.90
2018-06-04T20:09:41.818Z,92.00
2018-06-04T20:12:10.876Z,92.30
2018-06-04T20:14:39.848Z,92.60
2018-06-04T20:17:09.050Z,92.70
2018-06-04T20:19:37.693Z,92.50
2018-06-04T20:22:06.839Z,92.90
2018-06-04T20:24:35.785Z,93.10
2018-06-04T20:27:04.681Z,93.30
2018-06-04T20:29:33.570Z,93.50
2018-06-04T20:32:02.349Z,93.50
2018-06-04T20:34:31.023Z,93.70
2018-06-04T20:36:59.814Z,93.90
2018-06-04T20:39:28.566Z,93.80
2018-06-04T20:41:57.355Z,94.00
2018-06-04T20:44:26.340Z,94.10
2018-06-04T20:46:55.083Z,94.10
2018-06-04T20:49:24.256Z,94.40
2018-06-04T20:51:53.173Z,94.40
2018-06-04T20:54:21.909Z,94.60
2018-06-04T20:56:50.448Z,94.90
2018-06-04T20:59:19.359Z,95.10
2018-06-04T21:01:48.553Z,95.20
2018-06-04T21:04:17.175Z,95.30
2018-06-04T21:06:46.092Z,95.70
2018-06-04T21:09:14.713Z,95.70
2018-06-04T21:11:43.369Z,96.00
2018-06-04T21:14:12.359Z,96.10
2018-06-04T21:16:41.346Z,96.20
2018-06-04T21:19:09.872Z,96.40
2018-06-04T21:21:38.612Z,96.50
2018-06-04T21:24:07.633Z,96.60
2018-06-04T21:26:36.751Z,96.70
2018-06-04T21:29:05.434Z,96.80
2018-06-04T21:31:34.062Z,96.90
2018-06-04T21:34:02.605Z,96.90
2018-06-04T21:36:31.611Z,96.90
2018-06-04T21:39:00.167Z,97.20
2018-06-04T21:41:29.160Z,96.90
2018-06-04T21:43:57.968Z,97.00
2018-06-04T21:46:27.176Z,97.10
2018-06-04T21:48:55.889Z,97.20
2018-06-04T21:51:24.631Z,97.30
2018-06-04T21:53:53.261Z,97.40
2018-06-04T21:56:22.268Z,97.40
2018-06-04T21:58:51.047Z,97.40
2018-06-04T22:01:19.891Z,96.80
2018-06-04T22:03:48.768Z,96.90
2018-06-04T22:06:17.497Z,96.90
2018-06-04T22:08:46.160Z,97.10
2018-06-04T22:11:14.870Z,97.20
2018-06-04T22:13:43.398Z,97.40
2018-06-04T22:16:11.968Z,97.60
2018-06-04T22:18:40.805Z,97.90
2018-06-04T22:21:09.406Z,98.10
2018-06-04T22:23:38.142Z,98.10
2018-06-04T22:26:06.757Z,98.10
2018-06-04T22:28:35.519Z,98.10
2018-06-04T22:31:04.133Z,98.10
2018-06-04T22:33:32.702Z,98.20
2018-06-04T22:36:01.424Z,98.30
2018-06-04T22:38:30.141Z,98.30
2018-06-04T22:41:06.827Z,98.40
2018-06-04T22:43:35.775Z,98.30
2018-06-04T22:46:04.543Z,98.30
2018-06-04T22:48:33.451Z,98.40
2018-06-04T22:51:02.031Z,98.50
2018-06-04T22:53:30.899Z,98.50
2018-06-04T22:55:59.586Z,98.50
2018-06-04T22:58:28.168Z,98.40
2018-06-04T23:00:56.669Z,98.60
2018-06-04T23:03:25.309Z,98.30
2018-06-04T23:05:54.038Z,97.90
2018-06-04T23:08:22.680Z,97.70
2018-06-04T23:10:51.422Z,97.80
2018-06-04T23:13:20.460Z,97.80
2018-06-04T23:15:49.306Z,97.80
2018-06-04T23:18:18.205Z,97.80
2018-06-04T23:20:46.968Z,97.90
2018-06-04T23:23:15.829Z,98.20
2018-06-04T23:25:44.412Z,98.40
2018-06-04T23:28:13.100Z,98.40
2018-06-04T23:30:41.695Z,98.10
2018-06-04T23:33:10.440Z,98.00
2018-06-04T23:35:38.946Z,97.90
2018-06-04T23:38:07.619Z,97.80
2018-06-04T23:40:36.126Z,97.90
2018-06-04T23:43:04.750Z,98.00
2018-06-04T23:45:33.281Z,97.60
2018-06-04T23:48:02.929Z,97.60
2018-06-04T23:50:31.475Z,97.30
2018-06-04T23:53:00.006Z,97.20
2018-06-04T23:55:28.620Z,97.40
2018-06-04T23:57:57.258Z,97.40
